sensor_id;sensor_type;location;lat;lon;timestamp;P1;durP1;ratioP1;P2;durP2;ratioP2
18649;SDS011;9454;53.516;10.478;2023-08-06T00:02:24;4.10;;;1.50;;
18649;SDS011;9454;53.516;10.478;2023-08-06T00:05:28;5.18;;;1.92;;
18649;SDS011;9454;53.516;10.478;2023-08-06T00:08:31;2.78;;;1.50;;
18649;SDS011;9454;53.516;10.478;2023-08-06T00:11:35;2.33;;;1.42;;
18649;SDS011;9454;53.516;10.478;2023-08-06T00:14:38;3.38;;;1.50;;
18649;SDS011;9454;53.516;10.478;2023-08-06T00:17:43;1.98;;;1.55;;
18649;SDS011;9454;53.516;10.478;2023-08-06T00:20:48;8.25;;;1.42;;
18649;SDS011;9454;53.516;10.478;2023-08-06T00:23:52;1.77;;;1.17;;
18649;SDS011;9454;53.516;10.478;2023-08-06T00:26:55;9.50;;;1.60;;
18649;SDS011;9454;53.516;10.478;2023-08-06T00:29:59;2.13;;;1.60;;
18649;SDS011;9454;53.516;10.478;2023-08-06T00:33:04;5.88;;;1.42;;
18649;SDS011;9454;53.516;10.478;2023-08-06T00:36:08;4.35;;;1.80;;
18649;SDS011;9454;53.516;10.478;2023-08-06T00:39:11;6.93;;;1.70;;
18649;SDS011;9454;53.516;10.478;2023-08-06T00:42:15;3.97;;;1.60;;
18649;SDS011;9454;53.516;10.478;2023-08-06T00:45:22;8.82;;;1.75;;
18649;SDS011;9454;53.516;10.478;2023-08-06T00:48:27;15.15;;;1.88;;
18649;SDS011;9454;53.516;10.478;2023-08-06T00:51:31;4.93;;;1.40;;
18649;SDS011;9454;53.516;10.478;2023-08-06T00:54:36;3.63;;;1.90;;
18649;SDS011;9454;53.516;10.478;2023-08-06T00:57:40;5.97;;;1.60;;
18649;SDS011;9454;53.516;10.478;2023-08-06T01:00:44;5.80;;;1.98;;
18649;SDS011;9454;53.516;10.478;2023-08-06T01:03:50;3.38;;;1.67;;
18649;SDS011;9454;53.516;10.478;2023-08-06T01:06:56;5.18;;;1.55;;
18649;SDS011;9454;53.516;10.478;2023-08-06T01:10:10;7.78;;;1.80;;
18649;SDS011;9454;53.516;10.478;2023-08-06T01:13:17;4.38;;;1.77;;
18649;SDS011;9454;53.516;10.478;2023-08-06T01:16:22;2.22;;;1.50;;
18649;SDS011;9454;53.516;10.478;2023-08-06T01:19:28;5.07;;;1.45;;
18649;SDS011;9454;53.516;10.478;2023-08-06T01:22:35;3.67;;;1.60;;
18649;SDS011;9454;53.516;10.478;2023-08-06T01:25:39;6.00;;;1.70;;
18649;SDS011;9454;53.516;10.478;2023-08-06T01:28:48;3.92;;;1.52;;
18649;SDS011;9454;53.516;10.478;2023-08-06T01:31:54;2.72;;;1.63;;
18649;SDS011;9454;53.516;10.478;2023-08-06T01:34:59;5.55;;;1.80;;
18649;SDS011;9454;53.516;10.478;2023-08-06T01:38:06;5.55;;;1.80;;
18649;SDS011;9454;53.516;10.478;2023-08-06T01:41:09;4.90;;;1.63;;
18649;SDS011;9454;53.516;10.478;2023-08-06T01:44:13;4.32;;;1.90;;
18649;SDS011;9454;53.516;10.478;2023-08-06T01:47:17;2.75;;;1.70;;
18649;SDS011;9454;53.516;10.478;2023-08-06T01:50:20;4.93;;;2.60;;
18649;SDS011;9454;53.516;10.478;2023-08-06T01:53:27;3.70;;;1.42;;
18649;SDS011;9454;53.516;10.478;2023-08-06T01:56:31;2.95;;;1.73;;
18649;SDS011;9454;53.516;10.478;2023-08-06T01:59:34;7.00;;;1.52;;
18649;SDS011;9454;53.516;10.478;2023-08-06T02:02:38;5.13;;;1.80;;
18649;SDS011;9454;53.516;10.478;2023-08-06T02:05:43;3.88;;;1.80;;
18649;SDS011;9454;53.516;10.478;2023-08-06T02:08:49;3.33;;;1.88;;
18649;SDS011;9454;53.516;10.478;2023-08-06T02:11:53;4.72;;;1.50;;
18649;SDS011;9454;53.516;10.478;2023-08-06T02:14:56;6.00;;;1.63;;
18649;SDS011;9454;53.516;10.478;2023-08-06T02:18:02;10.85;;;1.80;;
18649;SDS011;9454;53.516;10.478;2023-08-06T02:21:07;2.47;;;1.83;;
18649;SDS011;9454;53.516;10.478;2023-08-06T02:24:12;3.65;;;1.88;;
18649;SDS011;9454;53.516;10.478;2023-08-06T02:27:16;2.67;;;1.55;;
18649;SDS011;9454;53.516;10.478;2023-08-06T02:30:20;10.80;;;1.92;;
18649;SDS011;9454;53.516;10.478;2023-08-06T02:33:23;4.65;;;1.73;;
18649;SDS011;9454;53.516;10.478;2023-08-06T02:36:29;1.70;;;1.50;;
18649;SDS011;9454;53.516;10.478;2023-08-06T02:39:34;2.95;;;2.00;;
18649;SDS011;9454;53.516;10.478;2023-08-06T02:42:41;11.50;;;2.78;;
18649;SDS011;9454;53.516;10.478;2023-08-06T02:45:45;4.22;;;1.60;;
18649;SDS011;9454;53.516;10.478;2023-08-06T02:48:49;2.60;;;1.60;;
18649;SDS011;9454;53.516;10.478;2023-08-06T02:51:53;3.90;;;1.95;;
18649;SDS011;9454;53.516;10.478;2023-08-06T02:54:59;4.18;;;1.45;;
18649;SDS011;9454;53.516;10.478;2023-08-06T02:58:06;7.07;;;2.08;;
18649;SDS011;9454;53.516;10.478;2023-08-06T03:01:13;2.50;;;1.75;;
18649;SDS011;9454;53.516;10.478;2023-08-06T03:04:24;2.95;;;2.00;;
18649;SDS011;9454;53.516;10.478;2023-08-06T03:07:30;2.55;;;1.58;;
18649;SDS011;9454;53.516;10.478;2023-08-06T03:10:56;4.07;;;1.83;;
18649;SDS011;9454;53.516;10.478;2023-08-06T03:13:59;3.20;;;1.83;;
18649;SDS011;9454;53.516;10.478;2023-08-06T03:17:04;2.58;;;1.92;;
18649;SDS011;9454;53.516;10.478;2023-08-06T03:20:10;5.72;;;1.77;;
18649;SDS011;9454;53.516;10.478;2023-08-06T03:23:14;5.93;;;1.98;;
18649;SDS011;9454;53.516;10.478;2023-08-06T03:26:20;8.15;;;2.38;;
18649;SDS011;9454;53.516;10.478;2023-08-06T03:29:24;5.32;;;2.10;;
18649;SDS011;9454;53.516;10.478;2023-08-06T03:32:29;5.63;;;1.90;;
18649;SDS011;9454;53.516;10.478;2023-08-06T03:35:34;5.80;;;2.05;;
18649;SDS011;9454;53.516;10.478;2023-08-06T03:38:38;2.30;;;1.67;;
18649;SDS011;9454;53.516;10.478;2023-08-06T03:41:49;5.35;;;2.08;;
18649;SDS011;9454;53.516;10.478;2023-08-06T03:44:53;3.30;;;2.10;;
18649;SDS011;9454;53.516;10.478;2023-08-06T03:47:59;3.08;;;1.80;;
18649;SDS011;9454;53.516;10.478;2023-08-06T03:51:03;3.30;;;1.77;;
18649;SDS011;9454;53.516;10.478;2023-08-06T03:54:07;7.20;;;2.10;;
18649;SDS011;9454;53.516;10.478;2023-08-06T03:57:12;6.03;;;2.05;;
18649;SDS011;9454;53.516;10.478;2023-08-06T04:00:15;7.72;;;2.03;;
18649;SDS011;9454;53.516;10.478;2023-08-06T04:03:24;8.05;;;2.00;;
18649;SDS011;9454;53.516;10.478;2023-08-06T04:06:28;5.35;;;2.10;;
18649;SDS011;9454;53.516;10.478;2023-08-06T04:09:33;3.60;;;2.10;;
18649;SDS011;9454;53.516;10.478;2023-08-06T04:12:39;5.00;;;2.00;;
18649;SDS011;9454;53.516;10.478;2023-08-06T04:15:42;9.55;;;2.53;;
18649;SDS011;9454;53.516;10.478;2023-08-06T04:18:46;3.58;;;2.05;;
18649;SDS011;9454;53.516;10.478;2023-08-06T04:21:52;3.75;;;2.30;;
18649;SDS011;9454;53.516;10.478;2023-08-06T04:24:55;3.72;;;2.22;;
18649;SDS011;9454;53.516;10.478;2023-08-06T04:28:01;3.55;;;1.90;;
18649;SDS011;9454;53.516;10.478;2023-08-06T04:31:04;7.85;;;2.17;;
18649;SDS011;9454;53.516;10.478;2023-08-06T04:34:10;2.75;;;2.25;;
18649;SDS011;9454;53.516;10.478;2023-08-06T04:37:14;8.95;;;2.42;;
18649;SDS011;9454;53.516;10.478;2023-08-06T04:40:18;6.78;;;2.55;;
18649;SDS011;9454;53.516;10.478;2023-08-06T04:43:23;7.00;;;2.25;;
18649;SDS011;9454;53.516;10.478;2023-08-06T04:46:30;4.80;;;2.75;;
18649;SDS011;9454;53.516;10.478;2023-08-06T04:49:34;9.02;;;2.28;;
18649;SDS011;9454;53.516;10.478;2023-08-06T04:52:37;3.95;;;2.25;;
18649;SDS011;9454;53.516;10.478;2023-08-06T04:55:41;6.00;;;2.40;;
18649;SDS011;9454;53.516;10.478;2023-08-06T04:58:46;4.82;;;2.35;;
18649;SDS011;9454;53.516;10.478;2023-08-06T05:01:49;4.72;;;2.33;;
18649;SDS011;9454;53.516;10.478;2023-08-06T05:04:53;7.25;;;2.10;;
18649;SDS011;9454;53.516;10.478;2023-08-06T05:07:57;7.95;;;2.28;;
18649;SDS011;9454;53.516;10.478;2023-08-06T05:11:01;5.03;;;2.58;;
18649;SDS011;9454;53.516;10.478;2023-08-06T05:14:06;5.30;;;2.35;;
18649;SDS011;9454;53.516;10.478;2023-08-06T05:17:10;12.90;;;2.47;;
18649;SDS011;9454;53.516;10.478;2023-08-06T05:20:13;4.80;;;2.30;;
18649;SDS011;9454;53.516;10.478;2023-08-06T05:23:17;3.92;;;2.40;;
18649;SDS011;9454;53.516;10.478;2023-08-06T05:26:21;5.32;;;2.40;;
18649;SDS011;9454;53.516;10.478;2023-08-06T05:29:26;10.52;;;2.42;;
18649;SDS011;9454;53.516;10.478;2023-08-06T05:32:30;5.65;;;2.13;;
18649;SDS011;9454;53.516;10.478;2023-08-06T05:35:36;3.88;;;2.38;;
18649;SDS011;9454;53.516;10.478;2023-08-06T05:38:40;4.68;;;2.33;;
18649;SDS011;9454;53.516;10.478;2023-08-06T05:41:43;8.55;;;2.55;;
18649;SDS011;9454;53.516;10.478;2023-08-06T05:44:48;6.72;;;2.78;;
18649;SDS011;9454;53.516;10.478;2023-08-06T05:47:52;7.30;;;2.60;;
18649;SDS011;9454;53.516;10.478;2023-08-06T05:50:59;5.68;;;2.78;;
18649;SDS011;9454;53.516;10.478;2023-08-06T05:54:03;6.30;;;2.67;;
18649;SDS011;9454;53.516;10.478;2023-08-06T05:57:06;10.48;;;3.05;;
18649;SDS011;9454;53.516;10.478;2023-08-06T06:00:12;7.30;;;2.63;;
18649;SDS011;9454;53.516;10.478;2023-08-06T06:03:16;6.18;;;2.95;;
18649;SDS011;9454;53.516;10.478;2023-08-06T06:06:20;4.75;;;2.60;;
18649;SDS011;9454;53.516;10.478;2023-08-06T06:09:25;4.28;;;2.28;;
18649;SDS011;9454;53.516;10.478;2023-08-06T06:12:28;9.00;;;2.30;;
18649;SDS011;9454;53.516;10.478;2023-08-06T06:15:34;6.53;;;3.10;;
18649;SDS011;9454;53.516;10.478;2023-08-06T06:18:37;5.47;;;2.67;;
18649;SDS011;9454;53.516;10.478;2023-08-06T06:21:42;4.97;;;2.78;;
18649;SDS011;9454;53.516;10.478;2023-08-06T06:24:45;5.82;;;2.40;;
18649;SDS011;9454;53.516;10.478;2023-08-06T06:27:49;12.10;;;2.92;;
18649;SDS011;9454;53.516;10.478;2023-08-06T06:30:54;4.22;;;2.67;;
18649;SDS011;9454;53.516;10.478;2023-08-06T06:34:03;7.07;;;2.42;;
18649;SDS011;9454;53.516;10.478;2023-08-06T06:37:06;9.88;;;2.63;;
18649;SDS011;9454;53.516;10.478;2023-08-06T06:40:10;9.15;;;2.90;;
18649;SDS011;9454;53.516;10.478;2023-08-06T06:43:14;12.77;;;3.10;;
18649;SDS011;9454;53.516;10.478;2023-08-06T06:46:19;4.40;;;2.33;;
18649;SDS011;9454;53.516;10.478;2023-08-06T06:49:22;7.30;;;2.60;;
18649;SDS011;9454;53.516;10.478;2023-08-06T06:52:27;8.80;;;2.05;;
18649;SDS011;9454;53.516;10.478;2023-08-06T06:55:30;4.47;;;2.50;;
18649;SDS011;9454;53.516;10.478;2023-08-06T06:58:34;5.32;;;2.88;;
18649;SDS011;9454;53.516;10.478;2023-08-06T07:01:42;7.20;;;2.60;;
18649;SDS011;9454;53.516;10.478;2023-08-06T07:04:46;9.02;;;3.05;;
18649;SDS011;9454;53.516;10.478;2023-08-06T07:07:49;5.47;;;3.00;;
18649;SDS011;9454;53.516;10.478;2023-08-06T07:10:59;9.68;;;2.80;;
18649;SDS011;9454;53.516;10.478;2023-08-06T07:14:03;6.30;;;2.90;;
18649;SDS011;9454;53.516;10.478;2023-08-06T07:17:09;7.00;;;2.83;;
18649;SDS011;9454;53.516;10.478;2023-08-06T07:20:13;9.90;;;3.25;;
18649;SDS011;9454;53.516;10.478;2023-08-06T07:23:16;8.50;;;3.15;;
18649;SDS011;9454;53.516;10.478;2023-08-06T07:26:20;10.77;;;2.65;;
18649;SDS011;9454;53.516;10.478;2023-08-06T07:29:24;10.13;;;2.67;;
18649;SDS011;9454;53.516;10.478;2023-08-06T07:32:29;6.03;;;2.63;;
18649;SDS011;9454;53.516;10.478;2023-08-06T07:35:36;7.30;;;3.03;;
18649;SDS011;9454;53.516;10.478;2023-08-06T07:38:39;4.82;;;2.60;;
18649;SDS011;9454;53.516;10.478;2023-08-06T07:41:43;7.47;;;3.05;;
18649;SDS011;9454;53.516;10.478;2023-08-06T07:44:49;4.53;;;2.60;;
18649;SDS011;9454;53.516;10.478;2023-08-06T07:47:55;4.80;;;2.63;;
18649;SDS011;9454;53.516;10.478;2023-08-06T07:50:59;4.78;;;2.80;;
18649;SDS011;9454;53.516;10.478;2023-08-06T07:54:02;5.65;;;2.97;;
18649;SDS011;9454;53.516;10.478;2023-08-06T07:57:06;11.00;;;2.90;;
18649;SDS011;9454;53.516;10.478;2023-08-06T08:00:10;7.70;;;3.05;;
18649;SDS011;9454;53.516;10.478;2023-08-06T08:03:16;6.13;;;3.28;;
18649;SDS011;9454;53.516;10.478;2023-08-06T08:06:21;5.50;;;3.53;;
18649;SDS011;9454;53.516;10.478;2023-08-06T08:09:24;5.53;;;3.40;;
18649;SDS011;9454;53.516;10.478;2023-08-06T08:12:28;6.05;;;3.35;;
18649;SDS011;9454;53.516;10.478;2023-08-06T08:15:31;5.35;;;3.05;;
18649;SDS011;9454;53.516;10.478;2023-08-06T08:18:37;8.57;;;2.92;;
18649;SDS011;9454;53.516;10.478;2023-08-06T08:21:43;8.80;;;3.15;;
18649;SDS011;9454;53.516;10.478;2023-08-06T08:24:47;7.50;;;3.05;;
18649;SDS011;9454;53.516;10.478;2023-08-06T08:27:51;7.65;;;3.17;;
18649;SDS011;9454;53.516;10.478;2023-08-06T08:30:55;5.30;;;3.00;;
18649;SDS011;9454;53.516;10.478;2023-08-06T08:34:00;5.25;;;3.13;;
18649;SDS011;9454;53.516;10.478;2023-08-06T08:37:03;6.78;;;3.35;;
18649;SDS011;9454;53.516;10.478;2023-08-06T08:40:08;11.35;;;2.88;;
18649;SDS011;9454;53.516;10.478;2023-08-06T08:43:11;6.03;;;2.85;;
18649;SDS011;9454;53.516;10.478;2023-08-06T08:46:16;8.95;;;3.00;;
18649;SDS011;9454;53.516;10.478;2023-08-06T08:49:22;6.90;;;3.38;;
18649;SDS011;9454;53.516;10.478;2023-08-06T08:52:26;9.50;;;3.10;;
18649;SDS011;9454;53.516;10.478;2023-08-06T08:55:34;7.82;;;2.72;;
18649;SDS011;9454;53.516;10.478;2023-08-06T08:58:39;6.07;;;3.33;;
18649;SDS011;9454;53.516;10.478;2023-08-06T09:01:43;4.75;;;2.80;;
18649;SDS011;9454;53.516;10.478;2023-08-06T09:04:54;7.65;;;3.53;;
18649;SDS011;9454;53.516;10.478;2023-08-06T09:08:00;6.40;;;3.22;;
18649;SDS011;9454;53.516;10.478;2023-08-06T09:11:05;3.75;;;2.78;;
18649;SDS011;9454;53.516;10.478;2023-08-06T09:14:12;6.30;;;3.58;;
18649;SDS011;9454;53.516;10.478;2023-08-06T09:17:16;5.28;;;2.97;;
18649;SDS011;9454;53.516;10.478;2023-08-06T09:20:23;5.88;;;2.90;;
18649;SDS011;9454;53.516;10.478;2023-08-06T09:23:29;6.90;;;3.28;;
18649;SDS011;9454;53.516;10.478;2023-08-06T09:26:35;6.07;;;3.10;;
18649;SDS011;9454;53.516;10.478;2023-08-06T09:29:40;8.32;;;3.22;;
18649;SDS011;9454;53.516;10.478;2023-08-06T09:32:45;8.63;;;3.60;;
18649;SDS011;9454;53.516;10.478;2023-08-06T09:35:51;10.10;;;3.13;;
18649;SDS011;9454;53.516;10.478;2023-08-06T09:38:56;5.65;;;3.28;;
18649;SDS011;9454;53.516;10.478;2023-08-06T09:42:00;4.18;;;3.10;;
18649;SDS011;9454;53.516;10.478;2023-08-06T09:45:05;6.25;;;3.17;;
18649;SDS011;9454;53.516;10.478;2023-08-06T09:48:09;5.50;;;3.00;;
18649;SDS011;9454;53.516;10.478;2023-08-06T09:51:15;7.60;;;3.05;;
18649;SDS011;9454;53.516;10.478;2023-08-06T09:54:18;4.43;;;2.90;;
18649;SDS011;9454;53.516;10.478;2023-08-06T09:57:28;4.03;;;2.70;;
18649;SDS011;9454;53.516;10.478;2023-08-06T10:00:32;5.18;;;3.60;;
18649;SDS011;9454;53.516;10.478;2023-08-06T10:03:40;4.97;;;3.00;;
18649;SDS011;9454;53.516;10.478;2023-08-06T10:06:47;4.70;;;3.13;;
18649;SDS011;9454;53.516;10.478;2023-08-06T10:09:51;4.00;;;2.65;;
18649;SDS011;9454;53.516;10.478;2023-08-06T10:12:54;5.93;;;3.17;;
18649;SDS011;9454;53.516;10.478;2023-08-06T10:15:59;4.57;;;2.95;;
18649;SDS011;9454;53.516;10.478;2023-08-06T10:19:07;4.50;;;2.92;;
18649;SDS011;9454;53.516;10.478;2023-08-06T10:22:12;6.65;;;2.50;;
18649;SDS011;9454;53.516;10.478;2023-08-06T10:25:16;5.55;;;3.15;;
18649;SDS011;9454;53.516;10.478;2023-08-06T10:28:20;6.18;;;2.58;;
18649;SDS011;9454;53.516;10.478;2023-08-06T10:34:53;7.90;;;3.38;;
18649;SDS011;9454;53.516;10.478;2023-08-06T10:37:59;6.93;;;3.10;;
18649;SDS011;9454;53.516;10.478;2023-08-06T10:41:03;3.50;;;3.08;;
18649;SDS011;9454;53.516;10.478;2023-08-06T10:44:07;6.57;;;2.63;;
18649;SDS011;9454;53.516;10.478;2023-08-06T10:47:25;8.52;;;2.65;;
18649;SDS011;9454;53.516;10.478;2023-08-06T10:50:30;5.25;;;3.20;;
18649;SDS011;9454;53.516;10.478;2023-08-06T10:53:35;3.80;;;2.67;;
18649;SDS011;9454;53.516;10.478;2023-08-06T10:56:39;6.38;;;2.88;;
18649;SDS011;9454;53.516;10.478;2023-08-06T10:59:44;8.30;;;2.95;;
18649;SDS011;9454;53.516;10.478;2023-08-06T11:02:47;7.30;;;3.28;;
18649;SDS011;9454;53.516;10.478;2023-08-06T11:05:51;6.28;;;3.28;;
18649;SDS011;9454;53.516;10.478;2023-08-06T11:08:58;4.10;;;2.95;;
18649;SDS011;9454;53.516;10.478;2023-08-06T11:12:02;6.78;;;3.00;;
18649;SDS011;9454;53.516;10.478;2023-08-06T11:15:06;5.72;;;2.92;;
18649;SDS011;9454;53.516;10.478;2023-08-06T11:18:10;5.82;;;3.45;;
18649;SDS011;9454;53.516;10.478;2023-08-06T11:21:14;5.53;;;3.13;;
18649;SDS011;9454;53.516;10.478;2023-08-06T11:24:18;11.02;;;3.95;;
18649;SDS011;9454;53.516;10.478;2023-08-06T11:27:22;6.32;;;3.53;;
18649;SDS011;9454;53.516;10.478;2023-08-06T11:30:26;4.15;;;3.08;;
18649;SDS011;9454;53.516;10.478;2023-08-06T11:33:30;4.72;;;3.15;;
18649;SDS011;9454;53.516;10.478;2023-08-06T11:36:34;9.18;;;3.30;;
18649;SDS011;9454;53.516;10.478;2023-08-06T11:39:44;9.38;;;3.20;;
18649;SDS011;9454;53.516;10.478;2023-08-06T11:42:49;6.35;;;3.97;;
18649;SDS011;9454;53.516;10.478;2023-08-06T11:45:55;8.93;;;3.55;;
18649;SDS011;9454;53.516;10.478;2023-08-06T11:48:59;6.32;;;3.35;;
18649;SDS011;9454;53.516;10.478;2023-08-06T11:52:07;6.95;;;3.20;;
18649;SDS011;9454;53.516;10.478;2023-08-06T11:55:12;6.32;;;3.42;;
18649;SDS011;9454;53.516;10.478;2023-08-06T11:58:16;4.68;;;2.95;;
18649;SDS011;9454;53.516;10.478;2023-08-06T12:01:20;5.93;;;3.17;;
18649;SDS011;9454;53.516;10.478;2023-08-06T12:04:24;8.75;;;4.22;;
18649;SDS011;9454;53.516;10.478;2023-08-06T12:07:28;4.93;;;3.50;;
18649;SDS011;9454;53.516;10.478;2023-08-06T12:10:34;15.93;;;3.75;;
18649;SDS011;9454;53.516;10.478;2023-08-06T12:13:37;7.07;;;4.63;;
18649;SDS011;9454;53.516;10.478;2023-08-06T12:16:41;6.88;;;3.40;;
18649;SDS011;9454;53.516;10.478;2023-08-06T12:19:45;4.95;;;3.20;;
18649;SDS011;9454;53.516;10.478;2023-08-06T12:22:49;8.48;;;3.50;;
18649;SDS011;9454;53.516;10.478;2023-08-06T12:25:54;6.70;;;3.65;;
18649;SDS011;9454;53.516;10.478;2023-08-06T12:28:58;8.70;;;3.75;;
18649;SDS011;9454;53.516;10.478;2023-08-06T12:32:05;6.63;;;3.70;;
18649;SDS011;9454;53.516;10.478;2023-08-06T12:35:08;9.15;;;3.55;;
18649;SDS011;9454;53.516;10.478;2023-08-06T12:38:12;9.23;;;4.10;;
18649;SDS011;9454;53.516;10.478;2023-08-06T12:41:17;5.45;;;3.28;;
18649;SDS011;9454;53.516;10.478;2023-08-06T12:44:20;11.52;;;4.15;;
18649;SDS011;9454;53.516;10.478;2023-08-06T12:47:24;5.50;;;2.88;;
18649;SDS011;9454;53.516;10.478;2023-08-06T12:50:27;6.10;;;3.47;;
18649;SDS011;9454;53.516;10.478;2023-08-06T12:53:31;5.15;;;3.25;;
18649;SDS011;9454;53.516;10.478;2023-08-06T12:56:36;7.35;;;3.47;;
18649;SDS011;9454;53.516;10.478;2023-08-06T12:59:39;9.77;;;3.65;;
18649;SDS011;9454;53.516;10.478;2023-08-06T13:02:43;7.10;;;3.58;;
18649;SDS011;9454;53.516;10.478;2023-08-06T13:05:47;9.50;;;3.80;;
18649;SDS011;9454;53.516;10.478;2023-08-06T13:08:50;9.32;;;3.45;;
18649;SDS011;9454;53.516;10.478;2023-08-06T13:11:55;9.45;;;3.20;;
18649;SDS011;9454;53.516;10.478;2023-08-06T13:14:59;5.68;;;2.80;;
18649;SDS011;9454;53.516;10.478;2023-08-06T13:18:02;6.63;;;3.15;;
18649;SDS011;9454;53.516;10.478;2023-08-06T13:21:06;10.15;;;3.20;;
18649;SDS011;9454;53.516;10.478;2023-08-06T13:24:10;6.32;;;2.53;;
18649;SDS011;9454;53.516;10.478;2023-08-06T13:27:16;6.82;;;2.20;;
18649;SDS011;9454;53.516;10.478;2023-08-06T13:30:19;4.07;;;2.40;;
18649;SDS011;9454;53.516;10.478;2023-08-06T13:33:24;5.03;;;2.33;;
18649;SDS011;9454;53.516;10.478;2023-08-06T13:36:31;4.25;;;1.95;;
18649;SDS011;9454;53.516;10.478;2023-08-06T13:39:35;7.50;;;1.75;;
18649;SDS011;9454;53.516;10.478;2023-08-06T13:42:40;3.13;;;1.80;;
18649;SDS011;9454;53.516;10.478;2023-08-06T13:45:43;4.10;;;2.20;;
18649;SDS011;9454;53.516;10.478;2023-08-06T13:48:47;2.90;;;1.90;;
18649;SDS011;9454;53.516;10.478;2023-08-06T13:51:52;8.43;;;2.13;;
18649;SDS011;9454;53.516;10.478;2023-08-06T13:55:08;5.18;;;1.77;;
18649;SDS011;9454;53.516;10.478;2023-08-06T13:58:16;6.25;;;1.80;;
18649;SDS011;9454;53.516;10.478;2023-08-06T14:01:20;5.00;;;1.77;;
18649;SDS011;9454;53.516;10.478;2023-08-06T14:04:39;4.22;;;1.80;;
18649;SDS011;9454;53.516;10.478;2023-08-06T14:07:42;3.63;;;1.63;;
18649;SDS011;9454;53.516;10.478;2023-08-06T14:10:46;2.05;;;1.25;;
18649;SDS011;9454;53.516;10.478;2023-08-06T14:13:51;4.05;;;1.60;;
18649;SDS011;9454;53.516;10.478;2023-08-06T14:16:54;4.10;;;1.95;;
18649;SDS011;9454;53.516;10.478;2023-08-06T14:19:59;10.23;;;1.88;;
18649;SDS011;9454;53.516;10.478;2023-08-06T14:23:04;5.95;;;1.75;;
18649;SDS011;9454;53.516;10.478;2023-08-06T14:26:08;2.83;;;1.52;;
18649;SDS011;9454;53.516;10.478;2023-08-06T14:29:14;4.10;;;2.08;;
18649;SDS011;9454;53.516;10.478;2023-08-06T14:32:17;4.80;;;2.20;;
18649;SDS011;9454;53.516;10.478;2023-08-06T14:35:21;4.93;;;1.63;;
18649;SDS011;9454;53.516;10.478;2023-08-06T14:38:25;3.92;;;1.65;;
18649;SDS011;9454;53.516;10.478;2023-08-06T14:41:28;4.90;;;1.95;;
18649;SDS011;9454;53.516;10.478;2023-08-06T14:44:34;4.65;;;1.95;;
18649;SDS011;9454;53.516;10.478;2023-08-06T14:47:37;3.30;;;1.65;;
18649;SDS011;9454;53.516;10.478;2023-08-06T14:50:41;6.25;;;1.75;;
18649;SDS011;9454;53.516;10.478;2023-08-06T14:53:44;4.03;;;1.98;;
18649;SDS011;9454;53.516;10.478;2023-08-06T14:56:49;5.53;;;1.85;;
18649;SDS011;9454;53.516;10.478;2023-08-06T14:59:55;2.63;;;1.58;;
18649;SDS011;9454;53.516;10.478;2023-08-06T15:02:58;7.07;;;2.13;;
18649;SDS011;9454;53.516;10.478;2023-08-06T15:06:02;2.00;;;1.50;;
18649;SDS011;9454;53.516;10.478;2023-08-06T15:09:07;4.68;;;1.70;;
18649;SDS011;9454;53.516;10.478;2023-08-06T15:12:11;5.90;;;2.00;;
18649;SDS011;9454;53.516;10.478;2023-08-06T15:15:16;4.03;;;1.25;;
18649;SDS011;9454;53.516;10.478;2023-08-06T15:18:19;3.47;;;1.70;;
18649;SDS011;9454;53.516;10.478;2023-08-06T15:21:23;2.67;;;1.50;;
18649;SDS011;9454;53.516;10.478;2023-08-06T15:24:26;5.50;;;1.88;;
18649;SDS011;9454;53.516;10.478;2023-08-06T15:27:30;4.72;;;1.58;;
18649;SDS011;9454;53.516;10.478;2023-08-06T15:30:36;4.20;;;1.48;;
18649;SDS011;9454;53.516;10.478;2023-08-06T15:33:41;2.47;;;1.50;;
18649;SDS011;9454;53.516;10.478;2023-08-06T15:36:45;9.00;;;1.70;;
18649;SDS011;9454;53.516;10.478;2023-08-06T15:39:48;3.17;;;1.48;;
18649;SDS011;9454;53.516;10.478;2023-08-06T15:42:52;9.15;;;1.58;;
18649;SDS011;9454;53.516;10.478;2023-08-06T15:45:57;2.47;;;1.40;;
18649;SDS011;9454;53.516;10.478;2023-08-06T15:49:00;4.53;;;1.38;;
18649;SDS011;9454;53.516;10.478;2023-08-06T15:52:07;3.97;;;1.33;;
18649;SDS011;9454;53.516;10.478;2023-08-06T15:55:11;6.05;;;1.58;;
18649;SDS011;9454;53.516;10.478;2023-08-06T15:58:14;2.05;;;1.23;;
18649;SDS011;9454;53.516;10.478;2023-08-06T16:01:19;3.47;;;1.77;;
18649;SDS011;9454;53.516;10.478;2023-08-06T16:04:23;5.43;;;1.45;;
18649;SDS011;9454;53.516;10.478;2023-08-06T16:07:26;1.80;;;1.50;;
18649;SDS011;9454;53.516;10.478;2023-08-06T16:10:30;1.58;;;1.08;;
18649;SDS011;9454;53.516;10.478;2023-08-06T16:13:33;2.35;;;1.27;;
18649;SDS011;9454;53.516;10.478;2023-08-06T16:16:38;2.75;;;1.40;;
18649;SDS011;9454;53.516;10.478;2023-08-06T16:19:44;4.13;;;1.40;;
18649;SDS011;9454;53.516;10.478;2023-08-06T16:22:47;2.85;;;1.70;;
18649;SDS011;9454;53.516;10.478;2023-08-06T16:25:51;3.65;;;1.45;;
18649;SDS011;9454;53.516;10.478;2023-08-06T16:28:54;7.05;;;1.52;;
18649;SDS011;9454;53.516;10.478;2023-08-06T16:31:59;6.38;;;1.85;;
18649;SDS011;9454;53.516;10.478;2023-08-06T16:35:03;6.70;;;1.38;;
18649;SDS011;9454;53.516;10.478;2023-08-06T16:38:08;4.05;;;1.50;;
18649;SDS011;9454;53.516;10.478;2023-08-06T16:41:12;3.67;;;1.63;;
18649;SDS011;9454;53.516;10.478;2023-08-06T16:44:16;4.40;;;1.73;;
18649;SDS011;9454;53.516;10.478;2023-08-06T16:47:21;3.90;;;1.65;;
18649;SDS011;9454;53.516;10.478;2023-08-06T16:50:24;6.95;;;1.35;;
18649;SDS011;9454;53.516;10.478;2023-08-06T16:53:29;2.53;;;1.42;;
18649;SDS011;9454;53.516;10.478;2023-08-06T16:56:32;2.65;;;1.13;;
18649;SDS011;9454;53.516;10.478;2023-08-06T16:59:36;4.32;;;1.40;;
18649;SDS011;9454;53.516;10.478;2023-08-06T17:02:42;2.10;;;1.30;;
18649;SDS011;9454;53.516;10.478;2023-08-06T17:05:45;2.15;;;1.35;;
18649;SDS011;9454;53.516;10.478;2023-08-06T17:08:49;6.13;;;1.48;;
18649;SDS011;9454;53.516;10.478;2023-08-06T17:11:53;2.22;;;1.35;;
18649;SDS011;9454;53.516;10.478;2023-08-06T17:14:56;3.75;;;1.50;;
18649;SDS011;9454;53.516;10.478;2023-08-06T17:18:02;5.68;;;1.45;;
18649;SDS011;9454;53.516;10.478;2023-08-06T17:21:06;5.80;;;1.40;;
18649;SDS011;9454;53.516;10.478;2023-08-06T17:24:09;1.65;;;1.15;;
18649;SDS011;9454;53.516;10.478;2023-08-06T17:27:13;8.85;;;1.60;;
18649;SDS011;9454;53.516;10.478;2023-08-06T17:30:17;4.97;;;1.50;;
18649;SDS011;9454;53.516;10.478;2023-08-06T17:33:25;2.15;;;1.35;;
18649;SDS011;9454;53.516;10.478;2023-08-06T17:36:29;2.42;;;1.38;;
18649;SDS011;9454;53.516;10.478;2023-08-06T17:39:33;6.80;;;1.65;;
18649;SDS011;9454;53.516;10.478;2023-08-06T17:42:37;4.78;;;1.50;;
18649;SDS011;9454;53.516;10.478;2023-08-06T17:45:41;4.80;;;1.60;;
18649;SDS011;9454;53.516;10.478;2023-08-06T17:48:46;5.30;;;1.52;;
18649;SDS011;9454;53.516;10.478;2023-08-06T17:51:49;2.65;;;1.45;;
18649;SDS011;9454;53.516;10.478;2023-08-06T17:54:53;2.45;;;1.50;;
18649;SDS011;9454;53.516;10.478;2023-08-06T17:57:56;3.25;;;1.58;;
18649;SDS011;9454;53.516;10.478;2023-08-06T18:01:00;6.63;;;2.05;;
18649;SDS011;9454;53.516;10.478;2023-08-06T18:04:06;8.23;;;1.40;;
18649;SDS011;9454;53.516;10.478;2023-08-06T18:07:10;1.77;;;1.20;;
18649;SDS011;9454;53.516;10.478;2023-08-06T18:10:14;7.03;;;1.67;;
18649;SDS011;9454;53.516;10.478;2023-08-06T18:13:17;2.90;;;1.25;;
18649;SDS011;9454;53.516;10.478;2023-08-06T18:16:21;3.40;;;1.25;;
18649;SDS011;9454;53.516;10.478;2023-08-06T18:19:26;4.85;;;1.40;;
18649;SDS011;9454;53.516;10.478;2023-08-06T18:22:30;2.75;;;1.60;;
18649;SDS011;9454;53.516;10.478;2023-08-06T18:25:34;3.72;;;1.45;;
18649;SDS011;9454;53.516;10.478;2023-08-06T18:28:39;2.38;;;1.70;;
18649;SDS011;9454;53.516;10.478;2023-08-06T18:31:45;2.05;;;1.27;;
18649;SDS011;9454;53.516;10.478;2023-08-06T18:34:50;4.97;;;1.65;;
18649;SDS011;9454;53.516;10.478;2023-08-06T18:37:54;9.32;;;1.90;;